Timbiras, Brazil
Current Conditions -  °F | °C
As of 10:00 AM on Friday 19 Dec 2014 (Local Time) from SBTE Reporting Station
Broken Clouds Broken Clouds  
Wind Chill: 84°   Ceiling: 10000
Heat Index: 90°   Visibility: 6mi
Dew Point: 72°   Wind: 7mph
Humidity: 66%   Direction: 230°SW
Pressure: 29.88"   Gusts: NA
Location:  4.26°S, 43.94°W
Report Text: SBTE 191300Z 23006KT 9999 SCT025 BKN100 29/22 Q1012
Loading
Personal Weather Stations






























Interactive Weather Map New forecast layout! Learn more

10-Day Weather Forecast

Advertisements
Track Severe Weather on mobile